createdAt,value
2022-09-30T00:04:48.950Z,1003.27
2022-09-30T00:18:48.943Z,1003.19
2022-09-30T00:32:48.974Z,1003.25
2022-09-30T00:46:49.027Z,1003.4
2022-09-30T01:00:49.101Z,1003.45
2022-09-30T01:14:49.109Z,1003.55
2022-09-30T01:28:49.092Z,1003.62
2022-09-30T01:42:49.112Z,1003.79
2022-09-30T01:56:49.115Z,1003.96
2022-09-30T02:10:49.120Z,1004.21
2022-09-30T02:24:49.103Z,1004.37
2022-09-30T02:38:49.111Z,1004.41
2022-09-30T02:52:49.141Z,1004.5
2022-09-30T03:06:49.140Z,1004.53
2022-09-30T03:20:49.157Z,1004.69
2022-09-30T03:34:49.144Z,1004.81
2022-09-30T03:48:49.167Z,1004.97
2022-09-30T04:02:49.226Z,1005.16
2022-09-30T04:16:53.183Z,1005.26
2022-09-30T04:30:49.234Z,1005.67
2022-09-30T04:44:49.302Z,1005.58
2022-09-30T04:58:49.361Z,1005.65
2022-09-30T05:13:49.371Z,1006
2022-09-30T05:28:49.359Z,1006.34
2022-09-30T05:44:49.361Z,1006.45
2022-09-30T05:59:49.372Z,1006.51
2022-09-30T06:14:49.375Z,1006.79
2022-09-30T06:29:49.389Z,1007.06
2022-09-30T06:44:52.482Z,1007.23
2022-09-30T06:59:49.405Z,1007.55
2022-09-30T07:14:49.429Z,1007.85
2022-09-30T07:30:08.047Z,1008.19
2022-09-30T07:44:49.420Z,1008.27
2022-09-30T07:59:49.416Z,1008.51
2022-09-30T08:14:49.478Z,1008.75
2022-09-30T08:29:54.772Z,1008.86
2022-09-30T08:44:49.700Z,1009.05
2022-09-30T08:59:51.066Z,1009.12
2022-09-30T09:14:49.605Z,1009.29
2022-09-30T09:29:49.619Z,1009.5
2022-09-30T09:44:49.663Z,1009.71
2022-09-30T10:13:10.228Z,1009.78
2022-09-30T10:28:10.300Z,1009.87
2022-09-30T10:58:10.452Z,1009.97
2022-09-30T11:13:10.810Z,1010.12
2022-09-30T11:28:10.598Z,1010.18
2022-09-30T11:43:10.659Z,1010.33
2022-09-30T11:58:22.691Z,1010.37
2022-09-30T12:13:11.388Z,1010.44
2022-09-30T12:28:11.116Z,1010.47
2022-09-30T12:43:11.250Z,1010.56
2022-09-30T12:59:11.299Z,1010.61
2022-09-30T13:14:11.346Z,1010.64
2022-09-30T13:29:11.434Z,1010.68
2022-09-30T13:44:11.502Z,1010.88
2022-09-30T13:59:11.557Z,1011.16
2022-09-30T14:14:11.588Z,1011.34
2022-09-30T14:29:11.664Z,1011.29
2022-09-30T14:44:11.688Z,1011.28
2022-09-30T14:59:11.675Z,1011.25
2022-09-30T15:14:11.695Z,1011.31
2022-09-30T15:29:11.704Z,1011.48
2022-09-30T15:44:11.705Z,1011.51
2022-09-30T15:59:11.713Z,1011.64
2022-09-30T16:14:11.720Z,1011.67
2022-09-30T16:29:14.687Z,1011.84
2022-09-30T16:44:11.750Z,1011.89
2022-09-30T16:59:11.891Z,1011.84
2022-09-30T17:14:11.856Z,1011.92
2022-09-30T17:29:28.314Z,1012.11
2022-09-30T17:43:11.854Z,1012.2
2022-09-30T17:57:11.872Z,1012.45
2022-09-30T18:11:11.845Z,1012.46
2022-09-30T18:25:11.984Z,1012.49
2022-09-30T18:39:12.050Z,1012.49
2022-09-30T18:53:12.009Z,1012.59
2022-09-30T19:07:12.037Z,1012.26
2022-09-30T19:21:12.038Z,1012.33
2022-09-30T19:35:12.063Z,1012.37
2022-09-30T19:49:12.055Z,1012.5
2022-09-30T20:03:12.077Z,1012.57
2022-09-30T20:17:12.079Z,1012.74
2022-09-30T20:31:12.140Z,1012.97
2022-09-30T20:45:12.090Z,1013.15
2022-09-30T20:59:12.141Z,1013.34
2022-09-30T21:13:12.139Z,1013.1
2022-09-30T21:27:12.151Z,1013.23
2022-09-30T21:41:12.167Z,1013.31
2022-09-30T21:55:12.311Z,1013.18
2022-09-30T22:09:12.257Z,1013.38
2022-09-30T22:23:12.258Z,1013.3
2022-09-30T22:37:12.294Z,1013.52
2022-09-30T22:51:12.286Z,1013.45
2022-09-30T23:05:12.295Z,1013.74
2022-09-30T23:19:12.289Z,1013.69
2022-09-30T23:33:12.293Z,1013.73
2022-09-30T23:47:12.322Z,1013.83
